Time;durP1;ratioP1;P1;durP2;ratioP2;P2;SDS_P1;SDS_P2;PMS_P1;PMS_P2;Temp;Humidity;BMP_temperature;BMP_pressure;BME280_temperature;BME280_humidity;BME280_pressure;Samples;Min_cycle;Max_cycle;Signal;HPM_P1;HPM_P2
2022/09/10 00:02:06;;;;;;;3.00;0.50;;;;;;;15.49;84.62;100347.07;108260;1274;75108;-83
2022/09/10 00:04:33;;;;;;;2.00;0.60;;;;;;;15.49;84.47;100343.79;108151;1274;63612;-83
2022/09/10 00:07:00;;;;;;;2.30;0.50;;;;;;;15.49;84.42;100343.40;108258;1274;62116;-84
2022/09/10 00:09:26;;;;;;;1.70;0.60;;;;;;;15.49;84.37;100344.89;108305;1273;73909;-83
2022/09/10 00:11:54;;;;;;;2.10;0.60;;;;;;;15.48;84.31;100345.72;108412;1274;72554;-83
2022/09/10 00:14:22;;;;;;;2.20;0.60;;;;;;;15.47;84.24;100343.83;108568;1274;74531;-84
2022/09/10 00:16:49;;;;;;;1.80;0.60;;;;;;;15.48;84.29;100343.70;108574;1274;62083;-84
2022/09/10 00:19:18;;;;;;;1.50;0.50;;;;;;;15.49;84.28;100343.20;108215;1275;61682;-84
2022/09/10 00:21:45;;;;;;;1.60;0.50;;;;;;;15.49;84.24;100343.00;108327;1273;75416;-83
2022/09/10 00:24:12;;;;;;;1.90;0.60;;;;;;;15.50;84.18;100344.02;108386;1273;71391;-84
2022/09/10 00:26:39;;;;;;;1.20;0.60;;;;;;;15.50;84.18;100348.41;108398;1274;74896;-84
2022/09/10 00:29:09;;;;;;;2.50;0.70;;;;;;;15.51;84.11;100343.58;108297;1274;61977;-84
2022/09/10 00:31:37;;;;;;;2.30;0.60;;;;;;;15.54;84.06;100344.45;108251;1274;60641;-84
2022/09/10 00:34:06;;;;;;;2.10;0.60;;;;;;;15.55;83.91;100343.21;108253;1273;75351;-84
2022/09/10 00:36:35;;;;;;;3.00;0.60;;;;;;;15.57;83.75;100340.81;108413;1273;72111;-83
2022/09/10 00:39:08;;;;;;;2.60;0.60;;;;;;;15.59;83.64;100340.14;108170;1274;74646;-84
2022/09/10 00:41:36;;;;;;;2.30;0.50;;;;;;;15.61;83.69;100344.22;108369;1273;63720;-84
2022/09/10 00:44:06;;;;;;;1.40;0.60;;;;;;;15.62;83.46;100343.04;108138;1274;61536;-84
2022/09/10 00:46:46;;;;;;;1.90;0.50;;;;;;;15.63;83.43;100344.13;108416;1273;74132;-83
2022/09/10 00:49:25;;;;;;;2.30;0.40;;;;;;;15.65;83.39;100339.80;108326;1273;72242;-84
2022/09/10 00:51:53;;;;;;;1.60;0.60;;;;;;;15.65;83.35;100342.76;108299;1274;74063;-84
2022/09/10 00:54:25;;;;;;;2.10;1.00;;;;;;;15.66;83.34;100344.61;108144;1274;61613;-84
2022/09/10 00:56:54;;;;;;;2.00;0.60;;;;;;;15.67;83.36;100344.56;108417;1273;60633;-84
2022/09/10 00:59:25;;;;;;;2.50;0.70;;;;;;;15.67;83.20;100341.89;108277;1274;73963;-83
2022/09/10 01:01:52;;;;;;;1.50;0.60;;;;;;;15.67;83.19;100343.09;108394;1273;71865;-84
2022/09/10 01:04:20;;;;;;;2.30;0.60;;;;;;;15.70;83.17;100347.67;108378;1274;74057;-84
2022/09/10 01:06:50;;;;;;;2.70;0.60;;;;;;;15.72;83.10;100346.56;108417;1274;62061;-83
2022/09/10 01:09:19;;;;;;;2.00;0.60;;;;;;;15.73;82.91;100348.39;108373;1274;61509;-83
2022/09/10 01:12:20;;;;;;;1.80;0.50;;;;;;;15.72;83.11;100348.42;108323;1274;73400;-83
2022/09/10 01:15:16;;;;;;;1.90;0.60;;;;;;;15.71;83.05;100344.34;108377;1273;71281;-84
2022/09/10 01:18:02;;;;;;;2.30;0.50;;;;;;;15.70;82.96;100344.08;108239;1274;73946;-85
2022/09/10 01:21:00;;;;;;;2.60;0.80;;;;;;;15.72;82.77;100343.56;108357;1274;62348;-84
2022/09/10 01:23:52;;;;;;;1.40;0.60;;;;;;;15.72;82.83;100347.42;108326;1273;60686;-84
2022/09/10 01:26:26;;;;;;;4.10;0.60;;;;;;;15.71;82.66;100347.33;108412;1274;72859;-83
2022/09/10 01:29:05;;;;;;;3.60;0.80;;;;;;;15.71;82.55;100351.09;108349;1274;71545;-84
2022/09/10 01:31:46;;;;;;;2.40;0.60;;;;;;;15.71;82.65;100355.86;108399;1273;73961;-83
2022/09/10 01:34:26;;;;;;;1.50;0.50;;;;;;;15.72;82.78;100358.80;108382;1273;62021;-84
2022/09/10 01:37:00;;;;;;;2.80;0.40;;;;;;;15.73;82.72;100366.52;108349;1274;60701;-83
2022/09/10 01:39:27;;;;;;;2.00;0.60;;;;;;;15.71;82.93;100365.36;108615;1272;73864;-84
2022/09/10 01:41:54;;;;;;;2.40;0.60;;;;;;;15.68;82.99;100368.91;108613;1272;71356;-83
2022/09/10 01:44:44;;;;;;;1.80;0.70;;;;;;;15.66;83.15;100370.80;108406;1274;73531;-83
2022/09/10 01:47:26;;;;;;;3.00;0.70;;;;;;;15.66;83.13;100373.03;108211;1272;61995;-83
2022/09/10 01:50:32;;;;;;;2.20;0.60;;;;;;;15.66;83.33;100368.59;108270;1274;60667;-83
2022/09/10 01:53:04;;;;;;;2.60;0.70;;;;;;;15.65;83.17;100364.23;108356;1273;75524;-84
2022/09/10 01:55:34;;;;;;;2.10;0.50;;;;;;;15.65;83.38;100367.19;108375;1272;72477;-84
2022/09/10 01:58:25;;;;;;;3.10;0.60;;;;;;;15.67;83.34;100368.16;108393;1273;72495;-83
2022/09/10 02:01:06;;;;;;;2.20;0.70;;;;;;;15.66;83.31;100369.59;108347;1272;63456;-84
2022/09/10 02:03:35;;;;;;;2.10;0.60;;;;;;;15.64;83.30;100375.02;108359;1273;60754;-83
2022/09/10 02:06:06;;;;;;;2.30;0.70;;;;;;;15.61;83.32;100374.44;108143;1274;74159;-83
2022/09/10 02:08:37;;;;;;;1.70;0.60;;;;;;;15.59;83.41;100378.52;108405;1273;71268;-84
2022/09/10 02:11:13;;;;;;;2.00;0.60;;;;;;;15.55;83.69;100374.63;108348;1273;72922;-83
2022/09/10 02:13:43;;;;;;;2.80;0.60;;;;;;;15.51;83.94;100376.88;108279;1274;62258;-84
2022/09/10 02:16:20;;;;;;;1.90;0.60;;;;;;;15.48;83.87;100374.64;108342;1273;60621;-83
2022/09/10 02:18:48;;;;;;;1.80;0.60;;;;;;;15.46;84.14;100374.56;108348;1274;75478;-83
2022/09/10 02:21:15;;;;;;;2.40;0.80;;;;;;;15.44;84.32;100372.42;108164;1273;71828;-83
2022/09/10 02:23:45;;;;;;;2.80;0.70;;;;;;;15.44;84.23;100374.13;108215;1274;74637;-83
2022/09/10 02:26:13;;;;;;;2.40;0.70;;;;;;;15.43;84.59;100373.92;108219;1274;60936;-83
2022/09/10 02:28:42;;;;;;;2.20;0.80;;;;;;;15.43;84.54;100376.92;108353;1273;61474;-83
2022/09/10 02:31:09;;;;;;;1.50;0.70;;;;;;;15.43;84.74;100375.48;108110;1273;74064;-83
2022/09/10 02:33:37;;;;;;;2.00;0.60;;;;;;;15.43;84.68;100376.30;108158;1274;72870;-83
2022/09/10 02:36:07;;;;;;;2.20;0.80;;;;;;;15.45;84.74;100379.67;108234;1274;72980;-83
2022/09/10 02:38:34;;;;;;;1.30;0.50;;;;;;;15.48;84.77;100381.59;108239;1273;62252;-83
2022/09/10 02:41:01;;;;;;;1.60;0.70;;;;;;;15.49;84.78;100378.61;108384;1273;61991;-83
2022/09/10 02:43:28;;;;;;;1.50;0.60;;;;;;;15.49;84.73;100372.81;108340;1272;74943;-83
2022/09/10 02:45:58;;;;;;;2.30;0.70;;;;;;;15.49;84.75;100372.28;108415;1273;70266;-83
2022/09/10 02:48:27;;;;;;;1.40;0.70;;;;;;;15.48;84.80;100370.68;108275;1273;73993;-83
2022/09/10 02:50:54;;;;;;;1.80;0.80;;;;;;;15.48;84.88;100374.91;108179;1274;61958;-83
2022/09/10 02:53:21;;;;;;;2.20;0.70;;;;;;;15.49;84.83;100374.82;108135;1274;59808;-83
2022/09/10 02:55:48;;;;;;;2.10;0.80;;;;;;;15.48;84.92;100372.19;108201;1274;73861;-83
2022/09/10 02:58:15;;;;;;;2.10;0.70;;;;;;;15.48;85.08;100373.64;108178;1274;71532;-83
2022/09/10 03:00:44;;;;;;;2.30;0.80;;;;;;;15.50;85.01;100374.37;108228;1273;72700;-83
2022/09/10 03:03:11;;;;;;;4.20;0.70;;;;;;;15.49;85.07;100374.91;108174;1274;62193;-83
2022/09/10 03:05:40;;;;;;;2.00;0.60;;;;;;;15.49;85.04;100378.05;108301;1274;60456;-83
2022/09/10 03:08:08;;;;;;;2.10;0.70;;;;;;;15.50;84.99;100377.73;108240;1274;74392;-83
2022/09/10 03:10:38;;;;;;;3.50;0.90;;;;;;;15.52;84.99;100378.23;108201;1274;72497;-83
2022/09/10 03:13:05;;;;;;;3.60;0.80;;;;;;;15.53;84.87;100378.75;108225;1274;72919;-84
2022/09/10 03:15:32;;;;;;;2.40;0.80;;;;;;;15.54;84.73;100379.73;108349;1273;61974;-83
2022/09/10 03:17:59;;;;;;;1.70;0.80;;;;;;;15.55;84.85;100374.64;108210;1273;61531;-83
2022/09/10 03:20:26;;;;;;;2.40;0.70;;;;;;;15.56;84.81;100378.27;108276;1272;73855;-83
2022/09/10 03:22:53;;;;;;;3.10;0.70;;;;;;;15.56;84.58;100381.96;108278;1273;70685;-83
2022/09/10 03:25:21;;;;;;;2.30;0.70;;;;;;;15.56;84.68;100379.35;108202;1273;73147;-84
2022/09/10 03:27:48;;;;;;;3.30;0.70;;;;;;;15.56;84.52;100380.96;108227;1274;62975;-83
2022/09/10 03:30:15;;;;;;;2.00;0.70;;;;;;;15.55;84.52;100380.59;108391;1272;61719;-83
2022/09/10 03:32:43;;;;;;;2.90;0.70;;;;;;;15.54;84.52;100384.30;108122;1274;72844;-83
2022/09/10 03:35:10;;;;;;;2.10;0.70;;;;;;;15.54;84.54;100380.08;108284;1274;72596;-83
2022/09/10 03:37:37;;;;;;;3.00;0.90;;;;;;;15.54;84.46;100381.30;108128;1274;73232;-83
2022/09/10 03:40:06;;;;;;;2.70;0.80;;;;;;;15.54;84.32;100383.69;108379;1273;62085;-83
2022/09/10 03:42:33;;;;;;;2.30;0.70;;;;;;;15.51;84.40;100387.89;108140;1274;60609;-83
2022/09/10 03:45:00;;;;;;;2.80;0.90;;;;;;;15.48;84.38;100383.35;108413;1273;73401;-84
2022/09/10 03:47:27;;;;;;;2.50;0.70;;;;;;;15.46;84.68;100383.48;108314;1273;71360;-84
2022/09/10 03:49:55;;;;;;;3.30;0.80;;;;;;;15.44;84.76;100384.11;108130;1273;71810;-84
2022/09/10 03:52:22;;;;;;;1.90;0.70;;;;;;;15.42;84.86;100383.13;108213;1274;61982;-83
2022/09/10 03:54:49;;;;;;;1.60;0.80;;;;;;;15.40;85.04;100385.04;108439;1273;60917;-83
2022/09/10 03:57:16;;;;;;;2.50;0.70;;;;;;;15.38;85.13;100383.33;108176;1274;74401;-84
2022/09/10 03:59:44;;;;;;;2.50;0.80;;;;;;;15.38;85.08;100385.50;108234;1273;71547;-84
2022/09/10 04:02:12;;;;;;;3.00;0.90;;;;;;;15.37;85.23;100384.48;107996;1274;72977;-83
2022/09/10 04:04:40;;;;;;;1.90;0.70;;;;;;;15.37;85.12;100385.17;108377;1272;63623;-84
2022/09/10 04:07:08;;;;;;;3.20;0.80;;;;;;;15.36;85.36;100387.33;108136;1273;60661;-84
2022/09/10 04:09:35;;;;;;;2.20;0.70;;;;;;;15.36;85.37;100383.20;108241;1273;74896;-84
2022/09/10 04:12:02;;;;;;;2.90;0.70;;;;;;;15.36;85.51;100383.56;108225;1265;70134;-84
2022/09/10 04:14:29;;;;;;;2.40;0.70;;;;;;;15.35;85.53;100380.70;108388;1269;74701;-84
2022/09/10 04:16:57;;;;;;;2.30;0.80;;;;;;;15.34;85.53;100380.09;108405;1274;63496;-83
2022/09/10 04:19:26;;;;;;;3.00;0.80;;;;;;;15.34;85.54;100380.38;108315;1273;60713;-84
2022/09/10 04:21:53;;;;;;;3.60;0.80;;;;;;;15.32;85.59;100384.96;108397;1271;74876;-83
2022/09/10 04:24:20;;;;;;;3.30;0.90;;;;;;;15.30;85.56;100381.65;108211;1271;71203;-84
2022/09/10 04:26:47;;;;;;;2.50;0.70;;;;;;;15.30;85.78;100380.75;108447;1271;71855;-85
2022/09/10 04:29:15;;;;;;;1.50;0.70;;;;;;;15.29;85.77;100382.77;108363;1264;62348;-84
2022/09/10 04:31:42;;;;;;;2.70;1.20;;;;;;;15.30;85.78;100386.42;108384;1272;60083;-84
2022/09/10 04:34:09;;;;;;;3.00;1.10;;;;;;;15.31;85.91;100390.20;108388;1271;74386;-84
2022/09/10 04:36:36;;;;;;;2.50;0.80;;;;;;;15.31;85.93;100386.56;108399;1273;72228;-84
2022/09/10 04:39:03;;;;;;;1.90;0.90;;;;;;;15.33;85.94;100384.59;108436;1271;72883;-84
2022/09/10 04:41:30;;;;;;;3.90;0.90;;;;;;;15.33;85.90;100390.42;108389;1274;62155;-84
2022/09/10 04:43:58;;;;;;;3.20;0.80;;;;;;;15.34;85.86;100383.27;108394;1273;60566;-84
2022/09/10 04:46:25;;;;;;;2.60;0.70;;;;;;;15.35;85.69;100383.21;108319;1273;73979;-85
2022/09/10 04:48:51;;;;;;;2.50;0.80;;;;;;;15.37;85.60;100385.18;108437;1271;71067;-84
2022/09/10 04:51:19;;;;;;;2.80;0.80;;;;;;;15.39;85.56;100388.88;108242;1274;73214;-83
2022/09/10 04:53:46;;;;;;;2.90;0.80;;;;;;;15.41;85.35;100389.11;108281;1273;63476;-84
2022/09/10 04:56:13;;;;;;;2.80;1.00;;;;;;;15.43;85.48;100393.13;108394;1274;60184;-84
2022/09/10 04:58:40;;;;;;;2.40;1.00;;;;;;;15.45;85.33;100394.84;108326;1274;73979;-84
2022/09/10 05:01:09;;;;;;;2.40;0.80;;;;;;;15.46;85.31;100394.51;108401;1262;72911;-84
2022/09/10 05:03:36;;;;;;;2.40;0.80;;;;;;;15.46;85.10;100396.43;108310;1264;74188;-84
2022/09/10 05:06:06;;;;;;;2.80;0.90;;;;;;;15.45;85.05;100401.38;108339;1273;61934;-84
2022/09/10 05:08:33;;;;;;;2.80;1.00;;;;;;;15.43;85.01;100405.64;108219;1273;61686;-84
2022/09/10 05:11:01;;;;;;;2.40;0.90;;;;;;;15.39;85.10;100406.39;108443;1272;75091;-85
2022/09/10 05:13:29;;;;;;;3.00;0.90;;;;;;;15.35;85.35;100403.16;108274;1265;72179;-84
2022/09/10 05:15:59;;;;;;;3.60;1.10;;;;;;;15.34;85.52;100411.71;108236;1273;71577;-84
2022/09/10 05:18:26;;;;;;;2.70;1.00;;;;;;;15.34;85.80;100408.84;108338;1265;62418;-84
2022/09/10 05:20:53;;;;;;;4.50;1.20;;;;;;;15.33;85.69;100402.35;108328;1268;61936;-84
2022/09/10 05:23:20;;;;;;;2.60;1.00;;;;;;;15.33;85.73;100411.77;108157;1265;74863;-84
2022/09/10 05:25:49;;;;;;;4.50;1.10;;;;;;;15.35;85.87;100413.27;108143;1261;72441;-85
2022/09/10 05:28:16;;;;;;;5.90;1.10;;;;;;;15.39;85.87;100406.55;108286;1263;76270;-85
2022/09/10 05:30:46;;;;;;;2.90;0.90;;;;;;;15.44;86.07;100406.40;108389;1262;64672;-84
2022/09/10 05:33:17;;;;;;;3.50;1.40;;;;;;;15.50;86.10;100404.27;108568;1265;62090;-84
2022/09/10 05:35:44;;;;;;;2.80;1.00;;;;;;;15.59;85.85;100408.59;108474;1263;76356;-84
2022/09/10 05:38:11;;;;;;;2.70;1.00;;;;;;;15.63;85.72;100404.19;108214;1264;70152;-85
2022/09/10 05:40:41;;;;;;;2.30;1.10;;;;;;;15.68;85.68;100402.16;108203;1260;76337;-85
2022/09/10 05:43:10;;;;;;;3.00;1.20;;;;;;;15.78;85.74;100410.95;108094;1262;63426;-85
2022/09/10 05:45:37;;;;;;;2.70;1.00;;;;;;;15.83;85.47;100406.23;108093;1265;63996;-84
2022/09/10 05:50:29;;;;;;;3.60;1.50;;;;;;;15.99;85.13;100407.84;108286;1261;58482;-85
2022/09/10 05:52:56;;;;;;;3.10;1.30;;;;;;;16.10;85.12;100406.27;107998;1264;58455;-85
2022/09/10 05:55:23;;;;;;;2.70;1.00;;;;;;;16.21;84.97;100405.04;108244;1262;59059;-85
2022/09/10 05:57:50;;;;;;;2.70;0.90;;;;;;;16.30;84.46;100401.90;108290;1263;58532;-85
2022/09/10 06:00:17;;;;;;;2.20;0.90;;;;;;;16.37;84.17;100400.89;108181;1261;76252;-85
2022/09/10 06:05:14;;;;;;;2.70;0.80;;;;;;;16.43;83.59;100400.85;108120;1261;74034;-86
2022/09/10 06:07:42;;;;;;;2.10;0.90;;;;;;;16.42;83.47;100401.46;108146;1261;62306;-84
2022/09/10 06:10:09;;;;;;;3.90;0.90;;;;;;;16.43;83.33;100401.98;108102;1264;61287;-85
2022/09/10 06:12:36;;;;;;;2.70;0.90;;;;;;;16.46;83.22;100401.27;108235;1264;75005;-84
2022/09/10 06:15:04;;;;;;;3.40;1.00;;;;;;;16.52;83.26;100402.14;108259;1262;73830;-85
2022/09/10 06:17:30;;;;;;;2.00;0.90;;;;;;;16.57;82.95;100403.58;108337;1262;76011;-85
2022/09/10 06:20:22;;;;;;;2.90;0.90;;;;;;;16.71;82.75;100404.96;103888;1301;599770;-84
2022/09/10 06:22:49;;;;;;;1.80;0.80;;;;;;;16.70;82.04;100404.29;106574;1276;65127;-85
2022/09/10 06:25:15;;;;;;;2.10;0.90;;;;;;;16.74;81.80;100410.05;106215;1278;59987;-85
2022/09/10 06:30:15;;;;;;;2.70;1.00;;;;;;;16.84;82.03;100408.06;106856;1277;72769;31
2022/09/10 06:32:42;;;;;;;3.80;1.00;;;;;;;16.91;81.82;100413.52;106639;1277;73921;-87
2022/09/10 06:35:09;;;;;;;4.00;1.00;;;;;;;16.98;81.65;100413.77;105443;1276;61601;-85
2022/09/10 06:37:36;;;;;;;2.60;0.90;;;;;;;17.03;81.46;100410.69;106884;1278;57053;-85
2022/09/10 06:40:03;;;;;;;3.10;0.90;;;;;;;17.14;81.23;100415.92;108282;1272;57546;-80
2022/09/10 06:42:31;;;;;;;27.80;21.80;;;;;;;17.21;80.78;100415.80;108207;1277;68787;-81
2022/09/10 06:44:58;;;;;;;12.70;7.60;;;;;;;17.30;80.92;100416.11;108257;1274;74372;-80
2022/09/10 06:47:25;;;;;;;6.30;3.60;;;;;;;17.36;79.90;100415.52;108135;1275;62511;-78
2022/09/10 06:50:12;;;;;;;7.80;3.00;;;;;;;17.37;79.36;100408.90;108103;1277;60655;-79
2022/09/10 06:52:39;;;;;;;3.80;1.10;;;;;;;17.37;79.13;100408.94;108145;1277;74504;-76
2022/09/10 06:55:06;;;;;;;3.40;0.90;;;;;;;17.33;79.03;100414.33;108135;1277;72339;-76
2022/09/10 06:57:33;;;;;;;2.50;0.90;;;;;;;17.33;79.33;100412.42;108118;1277;72625;-77
2022/09/10 07:00:00;;;;;;;2.10;0.70;;;;;;;17.34;79.26;100416.59;107941;1277;61655;-78
2022/09/10 07:02:27;;;;;;;4.00;1.10;;;;;;;17.29;79.33;100420.64;108090;1276;61709;-78
2022/09/10 07:04:54;;;;;;;3.40;1.10;;;;;;;17.36;79.54;100428.77;108118;1277;74842;-77
2022/09/10 07:07:21;;;;;;;4.90;0.90;;;;;;;17.45;79.65;100429.44;108057;1277;71194;-76
2022/09/10 07:09:48;;;;;;;2.20;0.80;;;;;;;17.59;79.39;100426.11;108232;1275;73891;-80
2022/09/10 07:12:15;;;;;;;6.90;4.20;;;;;;;17.70;78.70;100427.67;107909;1271;62042;-81
2022/09/10 07:14:42;;;;;;;4.30;2.50;;;;;;;17.83;78.26;100429.86;107796;1267;59790;-76
2022/09/10 07:17:08;;;;;;;2.80;1.10;;;;;;;17.94;77.54;100433.11;107557;1280;74941;-77
2022/09/10 07:19:36;;;;;;;3.10;0.90;;;;;;;18.01;76.80;100432.45;108039;1278;71186;-77
2022/09/10 07:22:03;;;;;;;2.70;0.70;;;;;;;18.09;76.31;100437.98;108004;1277;74334;-76
2022/09/10 07:24:30;;;;;;;3.90;1.20;;;;;;;18.20;76.06;100441.03;107819;1280;63427;-77
2022/09/10 07:26:56;;;;;;;2.20;0.70;;;;;;;18.30;75.09;100444.55;107938;1280;60683;-76
2022/09/10 07:29:24;;;;;;;2.10;0.70;;;;;;;18.29;74.02;100449.59;107768;1279;73838;-77
2022/09/10 07:31:51;;;;;;;2.90;0.80;;;;;;;18.24;74.31;100452.64;107702;1280;71766;-77
2022/09/10 07:34:19;;;;;;;3.70;0.80;;;;;;;18.27;74.50;100452.55;107538;1280;73987;-77
2022/09/10 07:36:45;;;;;;;2.50;0.70;;;;;;;18.30;74.32;100447.10;107559;1279;63814;-77
2022/09/10 07:39:12;;;;;;;2.40;1.00;;;;;;;18.36;73.92;100454.27;107762;1280;60415;-77
2022/09/10 07:41:39;;;;;;;3.80;1.00;;;;;;;18.48;73.75;100452.98;107887;1278;73212;-77
2022/09/10 07:44:05;;;;;;;2.80;0.70;;;;;;;18.60;73.40;100453.79;107731;1280;75078;-77
2022/09/10 07:46:32;;;;;;;3.20;1.10;;;;;;;18.67;72.87;100456.60;107905;1280;72662;-77
2022/09/10 07:48:59;;;;;;;3.60;0.80;;;;;;;18.66;72.78;100459.83;107848;1280;63307;-77
2022/09/10 07:51:28;;;;;;;3.40;0.80;;;;;;;18.66;72.81;100458.92;107851;1279;61844;-77
2022/09/10 07:53:57;;;;;;;2.60;0.70;;;;;;;18.68;72.51;100463.59;107376;1284;74147;-77
2022/09/10 07:56:24;;;;;;;3.20;0.90;;;;;;;18.78;72.47;100463.93;107543;1280;71438;-77
2022/09/10 07:58:52;;;;;;;2.30;0.80;;;;;;;18.88;71.65;100465.66;107460;1283;74268;-77
2022/09/10 08:01:19;;;;;;;2.20;0.80;;;;;;;18.90;70.98;100466.91;107315;1284;62967;-77
2022/09/10 08:03:46;;;;;;;2.70;0.80;;;;;;;18.99;71.38;100468.94;107488;1280;60600;-76
2022/09/10 08:06:14;;;;;;;2.90;0.70;;;;;;;19.16;71.14;100472.36;107372;1280;73060;-77
2022/09/10 08:08:41;;;;;;;1.90;0.70;;;;;;;19.32;70.47;100473.21;107527;1280;70163;-76
2022/09/10 08:11:16;;;;;;;1.90;0.80;;;;;;;19.46;69.01;100471.01;107350;1282;74387;-77
2022/09/10 08:13:47;;;;;;;3.10;0.90;;;;;;;19.56;67.91;100475.89;107779;1280;63478;-77
2022/09/10 08:16:17;;;;;;;1.80;0.70;;;;;;;19.68;67.62;100478.22;107341;1280;59669;-76
2022/09/10 08:18:50;;;;;;;2.20;0.80;;;;;;;19.66;66.52;100477.75;107812;1280;73299;-77
2022/09/10 08:21:17;;;;;;;3.50;0.90;;;;;;;19.67;66.53;100483.89;107453;1280;70225;-77
2022/09/10 08:23:49;;;;;;;2.00;0.60;;;;;;;19.68;66.07;100484.51;107721;1280;72812;-77
2022/09/10 08:26:17;;;;;;;1.90;0.60;;;;;;;19.65;66.61;100482.73;107289;1280;62206;-77
2022/09/10 08:28:44;;;;;;;2.80;0.70;;;;;;;19.67;66.47;100486.75;107433;1280;60767;-77
2022/09/10 08:31:11;;;;;;;2.30;0.80;;;;;;;19.71;66.36;100494.06;107446;1280;74509;-77
2022/09/10 08:33:39;;;;;;;2.90;0.90;;;;;;;19.72;66.35;100490.42;107387;1280;71454;-77
2022/09/10 08:36:09;;;;;;;3.90;0.90;;;;;;;19.85;66.69;100494.77;107422;1280;72769;-77
2022/09/10 08:38:38;;;;;;;3.20;0.90;;;;;;;20.04;66.63;100492.13;107455;1280;62124;-77
2022/09/10 08:41:27;;;;;;;2.20;0.70;;;;;;;20.25;65.65;100491.67;107439;1280;61591;-77
2022/09/10 08:44:19;;;;;;;2.60;0.90;;;;;;;20.27;63.15;100490.42;107403;1280;73716;-77
2022/09/10 08:46:54;;;;;;;2.50;0.60;;;;;;;20.34;62.86;100495.11;107618;1280;72072;-77
2022/09/10 08:49:40;;;;;;;3.00;0.80;;;;;;;20.47;63.99;100494.14;107460;1280;73721;-77
2022/09/10 08:52:20;;;;;;;2.00;0.60;;;;;;;20.44;63.60;100490.10;107473;1280;62129;-77
2022/09/10 08:55:04;;;;;;;2.20;0.60;;;;;;;20.35;63.85;100491.58;107721;1280;59270;-77
2022/09/10 08:57:36;;;;;;;2.40;0.90;;;;;;;20.38;64.19;100496.78;107839;1279;73658;-77
2022/09/10 09:00:06;;;;;;;3.00;0.60;;;;;;;20.53;64.07;100501.35;107693;1280;72144;-77
2022/09/10 09:02:41;;;;;;;2.90;0.70;;;;;;;20.77;62.99;100494.77;107628;1280;72730;-76
2022/09/10 09:05:18;;;;;;;1.60;0.60;;;;;;;20.88;62.61;100497.84;107683;1279;62128;-82
2022/09/10 09:07:47;;;;;;;2.30;0.60;;;;;;;20.95;61.95;100492.98;107786;1280;61514;-83
2022/09/10 09:10:38;;;;;;;2.30;0.60;;;;;;;21.02;61.78;100493.73;107834;1280;73255;-82
2022/09/10 09:13:25;;;;;;;2.60;0.60;;;;;;;21.08;60.84;100497.09;107577;1280;72597;-81
2022/09/10 09:16:06;;;;;;;2.90;0.70;;;;;;;21.11;60.81;100499.36;107815;1278;73715;-83
2022/09/10 09:18:51;;;;;;;3.50;0.80;;;;;;;21.17;59.85;100497.80;107906;1280;61614;-82
2022/09/10 09:21:44;;;;;;;2.70;0.60;;;;;;;21.30;59.01;100498.95;107879;1280;60572;-82
2022/09/10 09:24:21;;;;;;;2.80;0.60;;;;;;;21.39;59.18;100497.17;107793;1279;74246;-80
2022/09/10 09:26:48;;;;;;;2.30;0.60;;;;;;;21.46;58.81;100495.49;107781;1280;72778;-79
2022/09/10 09:29:29;;;;;;;1.90;0.60;;;;;;;21.54;58.27;100496.34;107993;1278;72779;-79
2022/09/10 09:32:03;;;;;;;1.90;0.60;;;;;;;21.61;58.18;100496.48;107746;1279;61682;-79
2022/09/10 09:34:39;;;;;;;1.90;0.50;;;;;;;21.72;57.48;100497.90;107862;1278;59535;-79
2022/09/10 09:37:20;;;;;;;2.70;0.60;;;;;;;21.67;56.69;100500.10;107866;1277;73795;-79
2022/09/10 09:40:01;;;;;;;3.10;0.70;;;;;;;21.69;57.10;100497.36;107797;1278;72375;-79
2022/09/10 09:42:38;;;;;;;1.70;0.50;;;;;;;21.78;57.56;100492.39;107728;1279;72885;-79
2022/09/10 09:45:31;;;;;;;3.30;0.80;;;;;;;21.83;57.40;100496.55;107991;1277;60525;-79
2022/09/10 09:47:58;;;;;;;2.30;0.60;;;;;;;21.78;57.16;100495.46;107896;1279;61841;-80
2022/09/10 09:50:28;;;;;;;2.60;0.60;;;;;;;21.86;57.35;100497.02;107796;1278;73441;-79
2022/09/10 09:52:55;;;;;;;1.70;0.50;;;;;;;22.04;56.57;100492.46;107639;1280;72454;-79
2022/09/10 09:55:29;;;;;;;3.00;0.40;;;;;;;22.20;56.15;100492.73;107909;1279;73045;-79
2022/09/10 09:58:20;;;;;;;1.80;0.50;;;;;;;22.30;55.59;100490.46;107844;1279;60349;-79
2022/09/10 10:01:11;;;;;;;2.50;0.70;;;;;;;22.41;55.74;100484.39;107835;1279;60155;-79
2022/09/10 10:03:41;;;;;;;2.30;0.50;;;;;;;22.41;54.55;100483.63;107810;1280;75120;-79
2022/09/10 10:06:10;;;;;;;3.40;0.80;;;;;;;22.36;54.52;100481.44;107958;1278;71351;-79
2022/09/10 10:08:41;;;;;;;1.80;0.40;;;;;;;22.51;55.98;100479.27;107996;1277;74039;-79
2022/09/10 10:11:11;;;;;;;1.80;0.50;;;;;;;22.71;54.81;100479.95;107675;1280;60655;-79
2022/09/10 10:13:40;;;;;;;2.90;0.50;;;;;;;22.83;54.72;100477.90;108007;1278;63786;-79
2022/09/10 10:16:21;;;;;;;1.70;0.30;;;;;;;22.96;53.27;100474.08;107758;1279;74251;-79
2022/09/10 10:18:48;;;;;;;2.30;0.50;;;;;;;23.04;52.94;100470.63;107986;1277;71455;-79
2022/09/10 10:21:16;;;;;;;1.80;0.40;;;;;;;23.21;53.41;100477.35;107922;1277;75438;-79
2022/09/10 10:23:43;;;;;;;2.20;0.40;;;;;;;23.34;52.12;100476.22;107789;1279;60716;-80
2022/09/10 10:26:19;;;;;;;1.50;0.50;;;;;;;23.36;50.88;100473.35;107774;1278;60367;-79
2022/09/10 10:29:14;;;;;;;2.60;0.70;;;;;;;23.34;51.30;100476.98;107989;1277;74419;-79
2022/09/10 10:31:43;;;;;;;1.20;0.30;;;;;;;23.41;51.51;100473.48;108001;1277;71141;-79
2022/09/10 10:34:15;;;;;;;1.30;0.40;;;;;;;23.33;51.11;100473.45;107990;1277;73933;-79
2022/09/10 10:37:50;;;;;;;1.50;0.40;;;;;;;23.19;51.07;100471.88;107991;1277;63283;-79
2022/09/10 10:40:32;;;;;;;2.40;0.50;;;;;;;23.10;52.44;100466.83;106923;1284;59434;-79
2022/09/10 10:43:14;;;;;;;2.40;0.50;;;;;;;23.03;52.06;100465.16;107839;1279;75807;-79
2022/09/10 10:46:06;;;;;;;1.00;0.30;;;;;;;22.87;52.20;100471.05;107631;1279;74470;-79
2022/09/10 10:49:07;;;;;;;2.00;0.40;;;;;;;22.95;53.14;100463.42;107975;1277;74434;-79
2022/09/10 10:52:14;;;;;;;2.30;0.50;;;;;;;22.99;52.53;100464.38;107973;1278;61968;-79
2022/09/10 10:55:03;;;;;;;1.60;0.50;;;;;;;23.03;52.18;100470.79;107982;1277;61413;-79
2022/09/10 10:57:51;;;;;;;1.80;0.40;;;;;;;22.91;51.93;100470.38;107974;1277;75382;-79
2022/09/10 11:00:19;;;;;;;1.30;0.30;;;;;;;22.89;51.90;100474.70;107972;1277;71176;-79
2022/09/10 11:03:02;;;;;;;1.50;0.40;;;;;;;22.92;52.04;100473.09;107946;1279;71814;-79
2022/09/10 11:05:53;;;;;;;1.50;0.60;;;;;;;22.92;52.23;100469.79;107786;1280;60531;-79
2022/09/10 11:08:32;;;;;;;2.00;0.50;;;;;;;22.78;51.97;100474.20;107929;1279;61703;-79
2022/09/10 11:11:09;;;;;;;2.40;0.40;;;;;;;22.64;52.31;100473.29;107968;1279;74124;-79
2022/09/10 11:13:43;;;;;;;1.60;0.50;;;;;;;22.64;52.83;100468.16;107968;1278;72373;-79
2022/09/10 11:16:25;;;;;;;1.20;0.40;;;;;;;22.46;53.40;100469.08;107959;1277;71957;-79
2022/09/10 11:19:01;;;;;;;2.10;0.50;;;;;;;22.38;53.74;100464.14;107810;1278;60496;-79
2022/09/10 11:21:41;;;;;;;1.50;0.40;;;;;;;22.46;54.64;100459.02;107909;1278;61460;-79
2022/09/10 11:24:17;;;;;;;1.70;0.40;;;;;;;22.63;55.27;100460.42;107621;1278;74774;-79
2022/09/10 11:26:53;;;;;;;1.50;0.40;;;;;;;22.77;54.83;100455.58;107799;1280;70528;-79
2022/09/10 11:29:51;;;;;;;0.90;0.30;;;;;;;22.79;53.90;100451.05;107758;1278;72965;-79
2022/09/10 11:32:27;;;;;;;4.30;0.50;;;;;;;22.80;54.35;100447.00;107752;1280;59468;-79
2022/09/10 11:35:11;;;;;;;3.50;0.50;;;;;;;23.04;53.69;100448.88;107973;1278;60849;-79
2022/09/10 11:38:19;;;;;;;1.90;0.50;;;;;;;23.22;53.25;100449.43;107748;1280;73960;-79
2022/09/10 11:41:22;;;;;;;1.30;0.40;;;;;;;23.25;52.23;100449.34;107976;1277;71374;-79
2022/09/10 11:43:58;;;;;;;1.80;0.40;;;;;;;23.37;52.65;100448.30;107869;1277;73794;-79
2022/09/10 11:46:57;;;;;;;1.40;0.40;;;;;;;23.50;52.40;100443.77;107697;1279;61563;-79
2022/09/10 11:49:36;;;;;;;1.10;0.30;;;;;;;23.68;50.54;100448.32;107966;1278;60329;-78